sensor_id;sensor_type;location;lat;lon;timestamp;temperature;humidity
32147;DHT22;32190;49.112;8.598;2022-11-15T00:03:40;13.10;64.50
32147;DHT22;32190;49.112;8.598;2022-11-15T00:09:33;13.10;64.40
32147;DHT22;32190;49.112;8.598;2022-11-15T00:15:26;13.10;64.30
32147;DHT22;32190;49.112;8.598;2022-11-15T00:21:17;13.20;64.30
32147;DHT22;32190;49.112;8.598;2022-11-15T00:27:08;13.20;64.30
32147;DHT22;32190;49.112;8.598;2022-11-15T00:33:05;13.20;64.30
32147;DHT22;32190;49.112;8.598;2022-11-15T00:38:56;13.20;64.20
32147;DHT22;32190;49.112;8.598;2022-11-15T00:44:47;13.20;64.20
32147;DHT22;32190;49.112;8.598;2022-11-15T00:50:38;13.20;64.30
32147;DHT22;32190;49.112;8.598;2022-11-15T00:56:28;13.20;64.20
32147;DHT22;32190;49.112;8.598;2022-11-15T01:02:19;13.20;64.30
32147;DHT22;32190;49.112;8.598;2022-11-15T01:08:14;13.10;64.30
32147;DHT22;32190;49.112;8.598;2022-11-15T01:14:08;13.20;64.50
32147;DHT22;32190;49.112;8.598;2022-11-15T01:20:06;13.10;64.40
32147;DHT22;32190;49.112;8.598;2022-11-15T01:26:01;13.10;64.50
32147;DHT22;32190;49.112;8.598;2022-11-15T01:31:55;13.10;64.40
32147;DHT22;32190;49.112;8.598;2022-11-15T01:37:46;13.10;64.40
32147;DHT22;32190;49.112;8.598;2022-11-15T02:13:39;12.90;64.50
32147;DHT22;32190;49.112;8.598;2022-11-15T02:31:53;12.90;64.90
32147;DHT22;32190;49.112;8.598;2022-11-15T02:38:03;12.90;64.90
32147;DHT22;32190;49.112;8.598;2022-11-15T02:44:11;12.90;64.80
32147;DHT22;32190;49.112;8.598;2022-11-15T02:50:08;12.90;64.90
32147;DHT22;32190;49.112;8.598;2022-11-15T02:56:00;12.90;64.70
32147;DHT22;32190;49.112;8.598;2022-11-15T03:14:18;13.00;64.60
32147;DHT22;32190;49.112;8.598;2022-11-15T03:20:16;12.90;64.50
32147;DHT22;32190;49.112;8.598;2022-11-15T03:26:12;13.00;64.70
32147;DHT22;32190;49.112;8.598;2022-11-15T03:32:16;13.00;64.80
32147;DHT22;32190;49.112;8.598;2022-11-15T03:38:26;13.00;64.70
32147;DHT22;32190;49.112;8.598;2022-11-15T03:50:20;13.00;64.70
32147;DHT22;32190;49.112;8.598;2022-11-15T03:56:15;13.10;64.70
32147;DHT22;32190;49.112;8.598;2022-11-15T04:02:05;13.10;64.70
32147;DHT22;32190;49.112;8.598;2022-11-15T04:07:56;13.10;64.60
32147;DHT22;32190;49.112;8.598;2022-11-15T04:26:08;13.10;64.70
32147;DHT22;32190;49.112;8.598;2022-11-15T04:32:45;13.10;64.60
32147;DHT22;32190;49.112;8.598;2022-11-15T04:38:55;13.20;64.70
32147;DHT22;32190;49.112;8.598;2022-11-15T04:45:01;13.10;64.50
32147;DHT22;32190;49.112;8.598;2022-11-15T04:57:19;13.20;64.50
32147;DHT22;32190;49.112;8.598;2022-11-15T05:03:10;13.10;64.60
32147;DHT22;32190;49.112;8.598;2022-11-15T05:09:20;13.10;64.80
32147;DHT22;32190;49.112;8.598;2022-11-15T05:15:11;13.20;65.10
32147;DHT22;32190;49.112;8.598;2022-11-15T05:21:08;13.20;65.00
32147;DHT22;32190;49.112;8.598;2022-11-15T05:27:00;13.20;65.20
32147;DHT22;32190;49.112;8.598;2022-11-15T05:32:50;13.20;65.00
32147;DHT22;32190;49.112;8.598;2022-11-15T05:38:45;13.20;64.80
32147;DHT22;32190;49.112;8.598;2022-11-15T05:44:41;13.20;64.90
32147;DHT22;32190;49.112;8.598;2022-11-15T05:50:39;13.20;64.80
32147;DHT22;32190;49.112;8.598;2022-11-15T05:56:31;13.20;64.70
32147;DHT22;32190;49.112;8.598;2022-11-15T06:02:22;13.20;64.80
32147;DHT22;32190;49.112;8.598;2022-11-15T06:08:13;13.20;64.90
32147;DHT22;32190;49.112;8.598;2022-11-15T06:14:03;13.20;64.80
32147;DHT22;32190;49.112;8.598;2022-11-15T06:19:54;13.10;64.70
32147;DHT22;32190;49.112;8.598;2022-11-15T06:25:45;13.10;64.80
32147;DHT22;32190;49.112;8.598;2022-11-15T06:31:36;13.10;64.70
32147;DHT22;32190;49.112;8.598;2022-11-15T06:37:26;13.10;64.80
32147;DHT22;32190;49.112;8.598;2022-11-15T06:43:20;13.10;64.80
32147;DHT22;32190;49.112;8.598;2022-11-15T06:49:10;13.10;65.00
32147;DHT22;32190;49.112;8.598;2022-11-15T06:55:01;13.00;64.90
32147;DHT22;32190;49.112;8.598;2022-11-15T07:00:51;13.10;64.90
32147;DHT22;32190;49.112;8.598;2022-11-15T07:06:42;13.10;64.90
32147;DHT22;32190;49.112;8.598;2022-11-15T07:12:33;13.00;64.80
32147;DHT22;32190;49.112;8.598;2022-11-15T07:18:24;13.10;64.90
32147;DHT22;32190;49.112;8.598;2022-11-15T07:24:14;13.10;64.80
32147;DHT22;32190;49.112;8.598;2022-11-15T07:30:05;13.10;64.80
32147;DHT22;32190;49.112;8.598;2022-11-15T07:35:59;13.20;64.90
32147;DHT22;32190;49.112;8.598;2022-11-15T07:41:51;13.20;64.90
32147;DHT22;32190;49.112;8.598;2022-11-15T07:48:02;13.20;64.80
32147;DHT22;32190;49.112;8.598;2022-11-15T07:53:53;13.20;64.80
32147;DHT22;32190;49.112;8.598;2022-11-15T07:59:43;13.30;64.80
32147;DHT22;32190;49.112;8.598;2022-11-15T08:39:12;13.40;65.00
32147;DHT22;32190;49.112;8.598;2022-11-15T08:45:03;13.50;65.20
32147;DHT22;32190;49.112;8.598;2022-11-15T09:05:07;13.70;66.30
32147;DHT22;32190;49.112;8.598;2022-11-15T09:10:58;13.80;65.80
32147;DHT22;32190;49.112;8.598;2022-11-15T09:16:48;13.90;66.10
32147;DHT22;32190;49.112;8.598;2022-11-15T10:40:31;14.90;65.90
32147;DHT22;32190;49.112;8.598;2022-11-15T10:46:23;14.90;66.10
32147;DHT22;32190;49.112;8.598;2022-11-15T10:52:18;15.00;65.90
32147;DHT22;32190;49.112;8.598;2022-11-15T11:24:44;15.30;66.00
32147;DHT22;32190;49.112;8.598;2022-11-15T11:31:15;15.20;66.00
32147;DHT22;32190;49.112;8.598;2022-11-15T11:43:36;15.40;66.10
32147;DHT22;32190;49.112;8.598;2022-11-15T11:49:56;15.50;65.80
32147;DHT22;32190;49.112;8.598;2022-11-15T11:55:53;15.50;66.20
32147;DHT22;32190;49.112;8.598;2022-11-15T12:01:45;15.60;66.10
32147;DHT22;32190;49.112;8.598;2022-11-15T12:07:42;15.60;65.60
32147;DHT22;32190;49.112;8.598;2022-11-15T12:13:58;15.60;65.60
32147;DHT22;32190;49.112;8.598;2022-11-15T12:20:20;15.60;65.70
32147;DHT22;32190;49.112;8.598;2022-11-15T12:26:26;15.60;65.60
32147;DHT22;32190;49.112;8.598;2022-11-15T12:32:35;15.60;66.00
32147;DHT22;32190;49.112;8.598;2022-11-15T12:56:44;15.60;66.60
32147;DHT22;32190;49.112;8.598;2022-11-15T13:02:44;15.70;66.30
32147;DHT22;32190;49.112;8.598;2022-11-15T13:20:44;15.80;66.30
32147;DHT22;32190;49.112;8.598;2022-11-15T13:26:38;15.90;66.40
32147;DHT22;32190;49.112;8.598;2022-11-15T13:56:31;16.20;66.00
32147;DHT22;32190;49.112;8.598;2022-11-15T14:02:27;16.30;66.20
32147;DHT22;32190;49.112;8.598;2022-11-15T14:21:18;16.40;66.40
32147;DHT22;32190;49.112;8.598;2022-11-15T14:27:24;16.40;66.60
32147;DHT22;32190;49.112;8.598;2022-11-15T14:53:52;16.40;66.80
32147;DHT22;32190;49.112;8.598;2022-11-15T15:06:04;16.40;66.50
32147;DHT22;32190;49.112;8.598;2022-11-15T15:11:55;16.30;66.70
32147;DHT22;32190;49.112;8.598;2022-11-15T15:17:45;16.40;66.60
32147;DHT22;32190;49.112;8.598;2022-11-15T15:23:36;16.30;66.60
32147;DHT22;32190;49.112;8.598;2022-11-15T15:29:34;16.30;66.70
32147;DHT22;32190;49.112;8.598;2022-11-15T15:36:03;16.30;66.80
32147;DHT22;32190;49.112;8.598;2022-11-15T15:41:54;16.20;66.80
32147;DHT22;32190;49.112;8.598;2022-11-15T16:21:14;15.90;66.70
32147;DHT22;32190;49.112;8.598;2022-11-15T17:09:46;16.10;66.30
32147;DHT22;32190;49.112;8.598;2022-11-15T17:21:59;16.30;66.00
32147;DHT22;32190;49.112;8.598;2022-11-15T17:27:58;16.40;65.90
32147;DHT22;32190;49.112;8.598;2022-11-15T17:34:03;16.40;65.70
32147;DHT22;32190;49.112;8.598;2022-11-15T17:40:25;16.50;65.60
32147;DHT22;32190;49.112;8.598;2022-11-15T17:47:03;16.50;65.50
32147;DHT22;32190;49.112;8.598;2022-11-15T17:53:11;16.50;65.40
32147;DHT22;32190;49.112;8.598;2022-11-15T18:13:09;16.50;65.10
32147;DHT22;32190;49.112;8.598;2022-11-15T19:02:13;16.50;65.10
32147;DHT22;32190;49.112;8.598;2022-11-15T19:08:03;16.50;65.10
32147;DHT22;32190;49.112;8.598;2022-11-15T19:26:32;16.40;65.00
32147;DHT22;32190;49.112;8.598;2022-11-15T19:32:23;16.40;65.00
32147;DHT22;32190;49.112;8.598;2022-11-15T19:38:14;16.40;65.20
32147;DHT22;32190;49.112;8.598;2022-11-15T19:44:05;16.40;65.20
32147;DHT22;32190;49.112;8.598;2022-11-15T19:56:23;16.40;65.10
32147;DHT22;32190;49.112;8.598;2022-11-15T20:02:14;16.40;65.10
32147;DHT22;32190;49.112;8.598;2022-11-15T20:08:05;16.40;65.10
32147;DHT22;32190;49.112;8.598;2022-11-15T20:13:59;16.40;65.10
32147;DHT22;32190;49.112;8.598;2022-11-15T20:49:53;16.30;65.00
32147;DHT22;32190;49.112;8.598;2022-11-15T20:55:47;16.20;65.00
32147;DHT22;32190;49.112;8.598;2022-11-15T21:01:38;16.20;65.00
32147;DHT22;32190;49.112;8.598;2022-11-15T21:07:28;16.20;65.10
32147;DHT22;32190;49.112;8.598;2022-11-15T21:13:19;16.20;65.00
32147;DHT22;32190;49.112;8.598;2022-11-15T21:19:10;16.20;65.10
32147;DHT22;32190;49.112;8.598;2022-11-15T21:25:00;16.20;65.10
32147;DHT22;32190;49.112;8.598;2022-11-15T21:30:55;16.20;65.10
32147;DHT22;32190;49.112;8.598;2022-11-15T21:36:46;16.10;65.00
32147;DHT22;32190;49.112;8.598;2022-11-15T21:42:37;16.20;65.10
32147;DHT22;32190;49.112;8.598;2022-11-15T21:48:29;16.10;65.10
32147;DHT22;32190;49.112;8.598;2022-11-15T21:54:20;16.10;65.10
32147;DHT22;32190;49.112;8.598;2022-11-15T22:00:11;16.10;65.20
32147;DHT22;32190;49.112;8.598;2022-11-15T22:06:20;16.10;65.10
32147;DHT22;32190;49.112;8.598;2022-11-15T22:12:11;16.10;65.10
32147;DHT22;32190;49.112;8.598;2022-11-15T22:18:02;16.10;65.10
32147;DHT22;32190;49.112;8.598;2022-11-15T22:23:53;16.10;65.20
32147;DHT22;32190;49.112;8.598;2022-11-15T22:29:43;16.00;65.10
32147;DHT22;32190;49.112;8.598;2022-11-15T22:35:35;16.00;65.20
32147;DHT22;32190;49.112;8.598;2022-11-15T22:41:25;16.00;65.20
32147;DHT22;32190;49.112;8.598;2022-11-15T23:18:04;16.00;65.20
32147;DHT22;32190;49.112;8.598;2022-11-15T23:23:55;16.00;65.20
32147;DHT22;32190;49.112;8.598;2022-11-15T23:29:46;16.00;65.20
32147;DHT22;32190;49.112;8.598;2022-11-15T23:35:55;15.90;65.10
32147;DHT22;32190;49.112;8.598;2022-11-15T23:41:46;15.90;65.20
32147;DHT22;32190;49.112;8.598;2022-11-15T23:47:36;15.90;65.30
32147;DHT22;32190;49.112;8.598;2022-11-15T23:53:27;15.80;65.30
32147;DHT22;32190;49.112;8.598;2022-11-15T23:59:17;15.80;65.30
